sensor_id;sensor_type;location;lat;lon;timestamp;pressure;altitude;pressure_sealevel;temperature;humidity
74542;BME280;63015;45.378;20.360;2022-09-24T00:02:18;101008.50;;;20.33;44.35
74542;BME280;63015;45.378;20.360;2022-09-24T00:04:44;101009.34;;;20.33;44.05
74542;BME280;63015;45.378;20.360;2022-09-24T00:07:09;101006.81;;;20.30;44.44
74542;BME280;63015;45.378;20.360;2022-09-24T00:09:34;101007.59;;;20.32;44.38
74542;BME280;63015;45.378;20.360;2022-09-24T00:11:59;101004.97;;;20.32;44.29
74542;BME280;63015;45.378;20.360;2022-09-24T00:14:25;101003.19;;;20.33;44.27
74542;BME280;63015;45.378;20.360;2022-09-24T00:16:50;101003.16;;;20.34;44.03
74542;BME280;63015;45.378;20.360;2022-09-24T00:19:15;101005.94;;;20.30;44.13
74542;BME280;63015;45.378;20.360;2022-09-24T00:21:41;101006.69;;;20.33;44.29
74542;BME280;63015;45.378;20.360;2022-09-24T00:24:16;100994.53;;;20.28;44.08
74542;BME280;63015;45.378;20.360;2022-09-24T00:27:00;100990.03;;;20.30;44.11
74542;BME280;63015;45.378;20.360;2022-09-24T00:29:26;100991.91;;;20.28;44.43
74542;BME280;63015;45.378;20.360;2022-09-24T00:31:52;100989.19;;;20.29;44.14
74542;BME280;63015;45.378;20.360;2022-09-24T00:34:18;100987.50;;;20.27;44.23
74542;BME280;63015;45.378;20.360;2022-09-24T00:36:43;100993.63;;;20.29;43.98
74542;BME280;63015;45.378;20.360;2022-09-24T00:39:10;100991.06;;;20.26;44.45
74542;BME280;63015;45.378;20.360;2022-09-24T00:41:38;100992.88;;;20.25;43.87
74542;BME280;63015;45.378;20.360;2022-09-24T00:46:48;100991.13;;;20.24;44.28
74542;BME280;63015;45.378;20.360;2022-09-24T00:49:14;100988.53;;;20.23;44.01
74542;BME280;63015;45.378;20.360;2022-09-24T00:51:40;100987.63;;;20.24;44.24
74542;BME280;63015;45.378;20.360;2022-09-24T00:54:08;100991.22;;;20.21;43.89
74542;BME280;63015;45.378;20.360;2022-09-24T00:56:35;100979.69;;;20.24;43.98
74542;BME280;63015;45.378;20.360;2022-09-24T00:59:02;100977.91;;;20.24;44.02
74542;BME280;63015;45.378;20.360;2022-09-24T01:01:28;100977.13;;;20.20;44.32
74542;BME280;63015;45.378;20.360;2022-09-24T01:03:54;100978.81;;;20.23;44.16
74542;BME280;63015;45.378;20.360;2022-09-24T01:06:20;100986.78;;;20.21;44.12
74542;BME280;63015;45.378;20.360;2022-09-24T01:08:45;100979.72;;;20.22;43.96
74542;BME280;63015;45.378;20.360;2022-09-24T01:13:42;100986.84;;;20.20;43.81
74542;BME280;63015;45.378;20.360;2022-09-24T01:16:14;100983.38;;;20.18;44.11
74542;BME280;63015;45.378;20.360;2022-09-24T01:18:44;100985.06;;;20.20;43.86
74542;BME280;63015;45.378;20.360;2022-09-24T01:31:23;100993.19;;;20.14;43.93
74542;BME280;63015;45.378;20.360;2022-09-24T01:33:50;100986.13;;;20.15;43.96
74542;BME280;63015;45.378;20.360;2022-09-24T01:36:17;100988.72;;;20.16;43.88
74542;BME280;63015;45.378;20.360;2022-09-24T01:38:44;100988.78;;;20.15;43.72
74542;BME280;63015;45.378;20.360;2022-09-24T01:41:11;100993.19;;;20.14;43.87
74542;BME280;63015;45.378;20.360;2022-09-24T01:43:39;100988.84;;;20.13;43.96
74542;BME280;63015;45.378;20.360;2022-09-24T01:46:05;100991.47;;;20.13;43.96
74542;BME280;63015;45.378;20.360;2022-09-24T01:48:37;100980.06;;;20.11;44.01
74542;BME280;63015;45.378;20.360;2022-09-24T01:51:25;100985.31;;;20.13;44.02
74542;BME280;63015;45.378;20.360;2022-09-24T01:53:54;100982.72;;;20.11;44.05
74542;BME280;63015;45.378;20.360;2022-09-24T01:56:22;100987.09;;;20.12;43.92
74542;BME280;63015;45.378;20.360;2022-09-24T01:58:50;100988.00;;;20.11;44.09
74542;BME280;63015;45.378;20.360;2022-09-24T02:01:20;100987.16;;;20.11;43.81
74542;BME280;63015;45.378;20.360;2022-09-24T02:03:47;100983.69;;;20.09;43.86
74542;BME280;63015;45.378;20.360;2022-09-24T02:06:16;100993.34;;;20.10;43.86
74542;BME280;63015;45.378;20.360;2022-09-24T02:08:45;100994.31;;;20.07;43.97
74542;BME280;63015;45.378;20.360;2022-09-24T02:11:14;100994.25;;;20.09;43.70
74542;BME280;63015;45.378;20.360;2022-09-24T02:13:45;100993.44;;;20.07;44.07
74542;BME280;63015;45.378;20.360;2022-09-24T02:16:12;100996.00;;;20.10;43.86
74542;BME280;63015;45.378;20.360;2022-09-24T02:18:41;100996.13;;;20.05;43.75
74542;BME280;63015;45.378;20.360;2022-09-24T02:21:09;100988.13;;;20.07;43.74
74542;BME280;63015;45.378;20.360;2022-09-24T02:23:37;100992.69;;;20.03;43.83
74542;BME280;63015;45.378;20.360;2022-09-24T02:26:04;100981.16;;;20.06;43.68
74542;BME280;63015;45.378;20.360;2022-09-24T02:28:30;100991.00;;;20.00;43.94
74542;BME280;63015;45.378;20.360;2022-09-24T02:33:28;100990.06;;;20.01;43.64
74542;BME280;63015;45.378;20.360;2022-09-24T02:36:13;100986.44;;;20.04;43.80
74542;BME280;63015;45.378;20.360;2022-09-24T02:38:38;100988.13;;;20.07;43.88
74542;BME280;63015;45.378;20.360;2022-09-24T02:41:04;100992.56;;;20.06;43.84
74542;BME280;63015;45.378;20.360;2022-09-24T02:43:32;100984.69;;;20.04;44.29
74542;BME280;63015;45.378;20.360;2022-09-24T02:45:59;100981.94;;;20.08;44.39
74542;BME280;63015;45.378;20.360;2022-09-24T02:48:25;100985.31;;;20.13;44.45
74542;BME280;63015;45.378;20.360;2022-09-24T02:50:50;100982.66;;;20.13;45.08
74542;BME280;63015;45.378;20.360;2022-09-24T02:53:15;100980.91;;;20.13;45.67
74542;BME280;63015;45.378;20.360;2022-09-24T02:55:41;100986.06;;;20.16;45.78
74542;BME280;63015;45.378;20.360;2022-09-24T02:58:06;100983.50;;;20.15;46.39
74542;BME280;63015;45.378;20.360;2022-09-24T03:00:32;100977.31;;;20.14;46.42
74542;BME280;63015;45.378;20.360;2022-09-24T03:02:57;100979.88;;;20.17;46.65
74542;BME280;63015;45.378;20.360;2022-09-24T03:05:23;100978.97;;;20.18;46.69
74542;BME280;63015;45.378;20.360;2022-09-24T03:07:48;100977.13;;;20.20;47.12
74542;BME280;63015;45.378;20.360;2022-09-24T03:10:14;100981.56;;;20.20;47.06
74542;BME280;63015;45.378;20.360;2022-09-24T03:12:39;100979.69;;;20.24;47.26
74542;BME280;63015;45.378;20.360;2022-09-24T03:15:06;100975.44;;;20.18;47.32
74542;BME280;63015;45.378;20.360;2022-09-24T03:17:31;100981.56;;;20.20;47.23
74542;BME280;63015;45.378;20.360;2022-09-24T03:19:57;100985.97;;;20.19;47.44
74542;BME280;63015;45.378;20.360;2022-09-24T03:22:22;100975.44;;;20.18;47.76
74542;BME280;63015;45.378;20.360;2022-09-24T03:24:47;100978.00;;;20.21;47.68
74542;BME280;63015;45.378;20.360;2022-09-24T03:27:13;100979.75;;;20.20;47.87
74542;BME280;63015;45.378;20.360;2022-09-24T03:29:38;100972.75;;;20.19;47.59
74542;BME280;63015;45.378;20.360;2022-09-24T03:32:22;100971.81;;;20.20;47.75
74542;BME280;63015;45.378;20.360;2022-09-24T03:34:47;100974.47;;;20.20;47.90
74542;BME280;63015;45.378;20.360;2022-09-24T03:37:12;100974.47;;;20.20;47.83
74542;BME280;63015;45.378;20.360;2022-09-24T03:39:38;100972.72;;;20.21;48.00
74542;BME280;63015;45.378;20.360;2022-09-24T03:42:03;100971.81;;;20.20;47.91
74542;BME280;63015;45.378;20.360;2022-09-24T03:44:28;100966.47;;;20.24;47.83
74542;BME280;63015;45.378;20.360;2022-09-24T03:46:53;100970.00;;;20.23;48.04
74542;BME280;63015;45.378;20.360;2022-09-24T03:49:19;100972.59;;;20.24;47.96
74542;BME280;63015;45.378;20.360;2022-09-24T03:51:44;100971.81;;;20.20;48.12
74542;BME280;63015;45.378;20.360;2022-09-24T03:54:10;100970.06;;;20.21;48.20
74542;BME280;63015;45.378;20.360;2022-09-24T03:56:35;100971.78;;;20.22;48.06
74542;BME280;63015;45.378;20.360;2022-09-24T03:59:00;100972.72;;;20.21;47.96
74542;BME280;63015;45.378;20.360;2022-09-24T04:01:26;100970.06;;;20.21;48.40
74542;BME280;63015;45.378;20.360;2022-09-24T04:03:53;100970.91;;;20.21;48.08
74542;BME280;63015;45.378;20.360;2022-09-24T04:06:18;100973.56;;;20.21;48.33
74542;BME280;63015;45.378;20.360;2022-09-24T04:08:43;100972.66;;;20.23;48.37
74542;BME280;63015;45.378;20.360;2022-09-24T04:11:08;100974.41;;;20.22;48.14
74542;BME280;63015;45.378;20.360;2022-09-24T04:13:34;100975.34;;;20.21;47.98
74542;BME280;63015;45.378;20.360;2022-09-24T04:16:03;100974.41;;;20.24;48.38
74542;BME280;63015;45.378;20.360;2022-09-24T04:18:28;100974.47;;;20.20;48.41
74542;BME280;63015;45.378;20.360;2022-09-24T04:20:57;100975.31;;;20.23;48.06
74542;BME280;63015;45.378;20.360;2022-09-24T04:23:23;100985.94;;;20.21;48.29
74542;BME280;63015;45.378;20.360;2022-09-24T04:25:48;100976.16;;;20.23;48.01
74542;BME280;63015;45.378;20.360;2022-09-24T04:28:13;100983.19;;;20.24;48.33
74542;BME280;63015;45.378;20.360;2022-09-24T04:30:39;100988.53;;;20.23;48.26
74542;BME280;63015;45.378;20.360;2022-09-24T04:33:05;100985.00;;;20.22;48.18
74542;BME280;63015;45.378;20.360;2022-09-24T04:35:31;100988.53;;;20.23;48.28
74542;BME280;63015;45.378;20.360;2022-09-24T04:37:56;100992.09;;;20.21;48.23
74542;BME280;63015;45.378;20.360;2022-09-24T04:40:22;100992.09;;;20.21;48.21
74542;BME280;63015;45.378;20.360;2022-09-24T04:42:48;100989.38;;;20.23;48.19
74542;BME280;63015;45.378;20.360;2022-09-24T04:45:13;100991.22;;;20.21;48.27
74542;BME280;63015;45.378;20.360;2022-09-24T04:47:41;100991.13;;;20.24;48.19
74542;BME280;63015;45.378;20.360;2022-09-24T04:50:07;100991.19;;;20.23;48.17
74542;BME280;63015;45.378;20.360;2022-09-24T04:52:33;100995.56;;;20.24;48.03
74542;BME280;63015;45.378;20.360;2022-09-24T04:54:59;100988.59;;;20.21;48.12
74542;BME280;63015;45.378;20.360;2022-09-24T04:57:24;100989.44;;;20.21;48.23
74542;BME280;63015;45.378;20.360;2022-09-24T04:59:50;100981.56;;;20.20;48.34
74542;BME280;63015;45.378;20.360;2022-09-24T05:02:15;100990.34;;;20.20;48.13
74542;BME280;63015;45.378;20.360;2022-09-24T05:04:41;100993.00;;;20.20;48.11
74542;BME280;63015;45.378;20.360;2022-09-24T05:07:08;100978.91;;;20.20;48.24
74542;BME280;63015;45.378;20.360;2022-09-24T05:09:33;100988.63;;;20.19;48.27
74542;BME280;63015;45.378;20.360;2022-09-24T05:11:59;100977.13;;;20.20;48.18
74542;BME280;63015;45.378;20.360;2022-09-24T05:14:24;100976.28;;;20.20;48.04
74542;BME280;63015;45.378;20.360;2022-09-24T05:16:49;100981.63;;;20.18;48.42
74542;BME280;63015;45.378;20.360;2022-09-24T05:19:14;100976.22;;;20.21;48.31
74542;BME280;63015;45.378;20.360;2022-09-24T05:21:40;100979.81;;;20.19;48.19
74542;BME280;63015;45.378;20.360;2022-09-24T05:24:05;100977.13;;;20.20;48.20
74542;BME280;63015;45.378;20.360;2022-09-24T05:26:30;100980.72;;;20.18;48.16
74542;BME280;63015;45.378;20.360;2022-09-24T05:29:14;100983.31;;;20.19;48.31
74542;BME280;63015;45.378;20.360;2022-09-24T05:31:40;100981.56;;;20.20;48.26
74542;BME280;63015;45.378;20.360;2022-09-24T05:34:05;100991.22;;;20.21;48.15
74542;BME280;63015;45.378;20.360;2022-09-24T05:36:30;100989.56;;;20.18;48.36
74542;BME280;63015;45.378;20.360;2022-09-24T05:38:56;100992.94;;;20.22;48.27
74542;BME280;63015;45.378;20.360;2022-09-24T05:41:21;101005.25;;;20.23;48.44
74542;BME280;63015;45.378;20.360;2022-09-24T05:43:46;101009.69;;;20.23;48.04
74542;BME280;63015;45.378;20.360;2022-09-24T05:46:12;101016.81;;;20.20;48.29
74542;BME280;63015;45.378;20.360;2022-09-24T05:48:38;101017.69;;;20.21;48.30
74542;BME280;63015;45.378;20.360;2022-09-24T05:51:03;101011.56;;;20.19;48.24
74542;BME280;63015;45.378;20.360;2022-09-24T05:53:29;101005.31;;;20.21;48.43
74542;BME280;63015;45.378;20.360;2022-09-24T05:55:54;101004.47;;;20.21;48.28
74542;BME280;63015;45.378;20.360;2022-09-24T05:58:20;101011.53;;;20.20;48.13
74542;BME280;63015;45.378;20.360;2022-09-24T06:00:45;101011.44;;;20.24;48.29
74542;BME280;63015;45.378;20.360;2022-09-24T06:03:14;101005.31;;;20.21;48.22
74542;BME280;63015;45.378;20.360;2022-09-24T06:05:49;101012.41;;;20.21;48.17
74542;BME280;63015;45.378;20.360;2022-09-24T06:08:16;101014.16;;;20.20;48.34
74542;BME280;63015;45.378;20.360;2022-09-24T06:10:42;101014.16;;;20.20;48.26
74542;BME280;63015;45.378;20.360;2022-09-24T06:13:08;101015.97;;;20.20;48.47
74542;BME280;63015;45.378;20.360;2022-09-24T06:15:35;101002.66;;;20.21;48.23
74542;BME280;63015;45.378;20.360;2022-09-24T06:18:00;101014.09;;;20.22;48.29
74542;BME280;63015;45.378;20.360;2022-09-24T06:20:26;101015.06;;;20.19;48.27
74542;BME280;63015;45.378;20.360;2022-09-24T06:22:55;101013.31;;;20.20;48.20
74542;BME280;63015;45.378;20.360;2022-09-24T06:25:21;101021.25;;;20.20;48.32
74542;BME280;63015;45.378;20.360;2022-09-24T06:27:51;101018.59;;;20.20;48.24
74542;BME280;63015;45.378;20.360;2022-09-24T06:30:17;101021.25;;;20.20;48.31
74542;BME280;63015;45.378;20.360;2022-09-24T06:32:42;101014.09;;;20.22;48.41
74542;BME280;63015;45.378;20.360;2022-09-24T06:35:08;101017.72;;;20.19;48.22
74542;BME280;63015;45.378;20.360;2022-09-24T06:37:33;101017.69;;;20.21;48.51
74542;BME280;63015;45.378;20.360;2022-09-24T06:39:58;101018.59;;;20.20;48.36
74542;BME280;63015;45.378;20.360;2022-09-24T06:42:24;101022.94;;;20.23;48.43
74542;BME280;63015;45.378;20.360;2022-09-24T06:44:51;101022.16;;;20.19;48.36
74542;BME280;63015;45.378;20.360;2022-09-24T06:47:16;101023.91;;;20.20;48.32
74542;BME280;63015;45.378;20.360;2022-09-24T06:49:41;101029.19;;;20.20;48.43
74542;BME280;63015;45.378;20.360;2022-09-24T06:52:07;101029.19;;;20.20;48.52
74542;BME280;63015;45.378;20.360;2022-09-24T06:54:32;101040.56;;;20.22;48.64
74542;BME280;63015;45.378;20.360;2022-09-24T06:56:57;101042.38;;;20.21;48.52
74542;BME280;63015;45.378;20.360;2022-09-24T06:59:23;101042.41;;;20.20;48.43
74542;BME280;63015;45.378;20.360;2022-09-24T07:01:48;101041.44;;;20.23;48.47
74542;BME280;63015;45.378;20.360;2022-09-24T07:04:13;101043.19;;;20.24;48.58
74542;BME280;63015;45.378;20.360;2022-09-24T07:06:38;101047.59;;;20.23;48.58
74542;BME280;63015;45.378;20.360;2022-09-24T07:09:22;101041.44;;;20.23;48.43
74542;BME280;63015;45.378;20.360;2022-09-24T07:11:48;101049.41;;;20.23;48.65
74542;BME280;63015;45.378;20.360;2022-09-24T07:14:14;101054.75;;;20.21;48.48
74542;BME280;63015;45.378;20.360;2022-09-24T07:16:39;101055.53;;;20.23;48.48
74542;BME280;63015;45.378;20.360;2022-09-24T07:19:04;101063.59;;;20.20;48.55
74542;BME280;63015;45.378;20.360;2022-09-24T07:21:30;101057.38;;;20.21;48.66
74542;BME280;63015;45.378;20.360;2022-09-24T07:23:55;101061.84;;;20.19;48.73
74542;BME280;63015;45.378;20.360;2022-09-24T07:26:20;101054.75;;;20.21;48.56
74542;BME280;63015;45.378;20.360;2022-09-24T07:28:46;101053.81;;;20.22;48.73
74542;BME280;63015;45.378;20.360;2022-09-24T07:31:11;101048.56;;;20.20;48.56
74542;BME280;63015;45.378;20.360;2022-09-24T07:33:36;101058.25;;;20.21;48.65
74542;BME280;63015;45.378;20.360;2022-09-24T07:36:05;101059.09;;;20.22;48.86
74542;BME280;63015;45.378;20.360;2022-09-24T07:38:33;101052.91;;;20.23;48.70
74542;BME280;63015;45.378;20.360;2022-09-24T07:41:00;101051.06;;;20.25;48.64
74542;BME280;63015;45.378;20.360;2022-09-24T07:43:25;101044.03;;;20.24;48.75
74542;BME280;63015;45.378;20.360;2022-09-24T07:45:51;101040.38;;;20.28;48.58
74542;BME280;63015;45.378;20.360;2022-09-24T07:48:17;101049.22;;;20.27;48.62
74542;BME280;63015;45.378;20.360;2022-09-24T07:50:43;101046.63;;;20.26;48.70
74542;BME280;63015;45.378;20.360;2022-09-24T07:53:11;101046.56;;;20.29;48.40
74542;BME280;63015;45.378;20.360;2022-09-24T07:55:37;101038.66;;;20.27;48.75
74542;BME280;63015;45.378;20.360;2022-09-24T07:58:04;101030.72;;;20.27;48.44
74542;BME280;63015;45.378;20.360;2022-09-24T08:00:30;101040.38;;;20.28;48.38
74542;BME280;63015;45.378;20.360;2022-09-24T08:02:55;101038.56;;;20.30;48.74
74542;BME280;63015;45.378;20.360;2022-09-24T08:05:20;101043.84;;;20.30;48.57
74542;BME280;63015;45.378;20.360;2022-09-24T08:07:52;101049.22;;;20.29;48.63
74542;BME280;63015;45.378;20.360;2022-09-24T08:10:17;101050.88;;;20.31;48.59
74542;BME280;63015;45.378;20.360;2022-09-24T08:12:43;101056.97;;;20.33;48.32
74542;BME280;63015;45.378;20.360;2022-09-24T08:15:08;101064.88;;;20.35;48.31
74542;BME280;63015;45.378;20.360;2022-09-24T08:17:33;101063.06;;;20.37;48.38
74542;BME280;63015;45.378;20.360;2022-09-24T08:19:59;101062.22;;;20.35;48.43
74542;BME280;63015;45.378;20.360;2022-09-24T08:22:24;101065.69;;;20.37;48.44
74542;BME280;63015;45.378;20.360;2022-09-24T08:24:50;101065.69;;;20.37;48.50
74542;BME280;63015;45.378;20.360;2022-09-24T08:27:17;101065.66;;;20.38;48.53
74542;BME280;63015;45.378;20.360;2022-09-24T08:29:43;101062.09;;;20.40;48.36
74542;BME280;63015;45.378;20.360;2022-09-24T08:32:08;101065.59;;;20.40;48.46
74542;BME280;63015;45.378;20.360;2022-09-24T08:34:33;101066.56;;;20.37;48.44
74542;BME280;63015;45.378;20.360;2022-09-24T08:37:03;101070.09;;;20.38;48.53
74542;BME280;63015;45.378;20.360;2022-09-24T08:39:28;101078.88;;;20.38;48.54
74542;BME280;63015;45.378;20.360;2022-09-24T08:41:57;101079.75;;;20.39;48.52
74542;BME280;63015;45.378;20.360;2022-09-24T08:44:43;101078.88;;;20.38;48.46
74542;BME280;63015;45.378;20.360;2022-09-24T08:52:29;101069.00;;;20.44;48.63
74542;BME280;63015;45.378;20.360;2022-09-24T08:54:59;101062.88;;;20.43;48.50
74542;BME280;63015;45.378;20.360;2022-09-24T08:57:26;101062.91;;;20.42;48.68
74542;BME280;63015;45.378;20.360;2022-09-24T08:59:51;101059.31;;;20.44;48.59
74542;BME280;63015;45.378;20.360;2022-09-24T09:02:36;101057.56;;;20.43;48.67
74542;BME280;63015;45.378;20.360;2022-09-24T09:05:26;101056.66;;;20.44;48.58
74542;BME280;63015;45.378;20.360;2022-09-24T09:07:59;101054.03;;;20.43;48.56
74542;BME280;63015;45.378;20.360;2022-09-24T09:10:35;101053.13;;;20.44;48.71
74542;BME280;63015;45.378;20.360;2022-09-24T09:15:31;101060.09;;;20.46;48.56
74542;BME280;63015;45.378;20.360;2022-09-24T09:20:42;101042.53;;;20.44;48.65
74542;BME280;63015;45.378;20.360;2022-09-24T09:25:37;101046.81;;;20.48;48.68
74542;BME280;63015;45.378;20.360;2022-09-24T09:30:45;101041.53;;;20.48;48.76
74542;BME280;63015;45.378;20.360;2022-09-24T09:35:53;101038.72;;;20.52;48.56
74542;BME280;63015;45.378;20.360;2022-09-24T09:38:21;101051.84;;;20.56;48.58
74542;BME280;63015;45.378;20.360;2022-09-24T09:41:02;101053.66;;;20.55;48.43
74542;BME280;63015;45.378;20.360;2022-09-24T09:43:30;101047.44;;;20.56;48.43
74542;BME280;63015;45.378;20.360;2022-09-24T09:46:09;101050.16;;;20.54;48.37
74542;BME280;63015;45.378;20.360;2022-09-24T09:51:05;101047.41;;;20.58;48.55
74542;BME280;63015;45.378;20.360;2022-09-24T09:53:31;101038.53;;;20.59;48.55
74542;BME280;63015;45.378;20.360;2022-09-24T09:55:57;101039.38;;;20.59;48.16
74542;BME280;63015;45.378;20.360;2022-09-24T09:58:27;101033.31;;;20.56;48.09
74542;BME280;63015;45.378;20.360;2022-09-24T10:01:06;101027.13;;;20.57;47.64
74542;BME280;63015;45.378;20.360;2022-09-24T10:06:00;101022.72;;;20.57;47.16
74542;BME280;63015;45.378;20.360;2022-09-24T10:08:27;101021.69;;;20.61;48.25
74542;BME280;63015;45.378;20.360;2022-09-24T10:10:53;101025.13;;;20.63;48.90
74542;BME280;63015;45.378;20.360;2022-09-24T10:13:22;101017.09;;;20.66;48.78
74542;BME280;63015;45.378;20.360;2022-09-24T10:15:55;101026.88;;;20.64;48.80
74542;BME280;63015;45.378;20.360;2022-09-24T10:20:49;101031.25;;;20.65;48.86
74542;BME280;63015;45.378;20.360;2022-09-24T10:23:17;101027.75;;;20.65;48.86
74542;BME280;63015;45.378;20.360;2022-09-24T10:25:53;101031.25;;;20.65;48.74
74542;BME280;63015;45.378;20.360;2022-09-24T10:28:20;101033.84;;;20.67;47.98
74542;BME280;63015;45.378;20.360;2022-09-24T10:31:05;101019.69;;;20.68;47.05
74542;BME280;63015;45.378;20.360;2022-09-24T10:33:38;101031.25;;;20.65;45.53
74542;BME280;63015;45.378;20.360;2022-09-24T10:36:15;101047.97;;;20.67;44.93
74542;BME280;63015;45.378;20.360;2022-09-24T10:38:41;101037.56;;;20.61;44.23
74542;BME280;63015;45.378;20.360;2022-09-24T10:41:24;101018.91;;;20.64;43.52
74542;BME280;63015;45.378;20.360;2022-09-24T10:43:52;101020.84;;;20.59;42.94
74542;BME280;63015;45.378;20.360;2022-09-24T10:46:40;101013.69;;;20.63;42.28
74542;BME280;63015;45.378;20.360;2022-09-24T10:49:14;101015.47;;;20.62;42.05
74542;BME280;63015;45.378;20.360;2022-09-24T10:51:50;101013.69;;;20.63;41.56
74542;BME280;63015;45.378;20.360;2022-09-24T10:56:49;101017.19;;;20.63;41.27
74542;BME280;63015;45.378;20.360;2022-09-24T11:09:47;100996.00;;;20.63;40.31
74542;BME280;63015;45.378;20.360;2022-09-24T11:23:00;100981.06;;;20.62;41.21
74542;BME280;63015;45.378;20.360;2022-09-24T11:30:59;100967.66;;;20.67;41.72
74542;BME280;63015;45.378;20.360;2022-09-24T11:38:59;100987.97;;;20.66;42.25
74542;BME280;63015;45.378;20.360;2022-09-24T11:52:12;100966.72;;;20.68;42.23
74542;BME280;63015;45.378;20.360;2022-09-24T11:55:40;100968.47;;;20.69;42.04
74542;BME280;63015;45.378;20.360;2022-09-24T11:57:38;100965.88;;;20.67;42.18
74542;BME280;63015;45.378;20.360;2022-09-24T12:00:06;100971.19;;;20.67;42.48
74542;BME280;63015;45.378;20.360;2022-09-24T12:02:39;100964.09;;;20.68;42.53
74542;BME280;63015;45.378;20.360;2022-09-24T12:12:38;100935.88;;;20.67;42.78
74542;BME280;63015;45.378;20.360;2022-09-24T12:17:36;100928.81;;;20.67;42.43
74542;BME280;63015;45.378;20.360;2022-09-24T12:20:10;100925.22;;;20.70;42.13
74542;BME280;63015;45.378;20.360;2022-09-24T12:22:37;100928.84;;;20.66;42.49
74542;BME280;63015;45.378;20.360;2022-09-24T12:25:04;100928.75;;;20.69;42.04
74542;BME280;63015;45.378;20.360;2022-09-24T12:27:33;100935.94;;;20.65;42.07
74542;BME280;63015;45.378;20.360;2022-09-24T12:32:56;100936.00;;;20.64;42.17
74542;BME280;63015;45.378;20.360;2022-09-24T12:38:17;100933.28;;;20.65;42.15
74542;BME280;63015;45.378;20.360;2022-09-24T12:43:14;100929.81;;;20.63;42.09
74542;BME280;63015;45.378;20.360;2022-09-24T12:45:42;100926.25;;;20.64;41.92
74542;BME280;63015;45.378;20.360;2022-09-24T12:48:10;100922.63;;;20.67;41.98
74542;BME280;63015;45.378;20.360;2022-09-24T12:50:38;100917.50;;;20.62;42.17
74542;BME280;63015;45.378;20.360;2022-09-24T12:53:17;100913.22;;;20.58;42.07
74542;BME280;63015;45.378;20.360;2022-09-24T12:55:48;100918.47;;;20.60;42.13
74542;BME280;63015;45.378;20.360;2022-09-24T12:58:25;100911.41;;;20.60;42.18
74542;BME280;63015;45.378;20.360;2022-09-24T13:01:03;100902.59;;;20.60;42.29
74542;BME280;63015;45.378;20.360;2022-09-24T13:03:35;100907.06;;;20.58;42.49
74542;BME280;63015;45.378;20.360;2022-09-24T13:06:01;100901.66;;;20.61;42.35
74542;BME280;63015;45.378;20.360;2022-09-24T13:08:38;100900.94;;;20.56;42.33
74542;BME280;63015;45.378;20.360;2022-09-24T13:11:05;100900.94;;;20.56;42.44
74542;BME280;63015;45.378;20.360;2022-09-24T13:13:56;100893.78;;;20.59;42.06
74542;BME280;63015;45.378;20.360;2022-09-24T13:16:22;100889.38;;;20.58;42.07
74542;BME280;63015;45.378;20.360;2022-09-24T13:18:55;100889.38;;;20.58;42.29
74542;BME280;63015;45.378;20.360;2022-09-24T13:21:21;100890.28;;;20.59;42.00
74542;BME280;63015;45.378;20.360;2022-09-24T13:23:48;100886.88;;;20.55;41.95
74542;BME280;63015;45.378;20.360;2022-09-24T13:28:58;100881.50;;;20.57;42.42
74542;BME280;63015;45.378;20.360;2022-09-24T13:46:15;100864.84;;;20.54;42.90
74542;BME280;63015;45.378;20.360;2022-09-24T13:48:44;100860.38;;;20.55;42.68
74542;BME280;63015;45.378;20.360;2022-09-24T13:51:12;100850.66;;;20.56;43.05
74542;BME280;63015;45.378;20.360;2022-09-24T13:53:43;100850.63;;;20.57;43.12
74542;BME280;63015;45.378;20.360;2022-09-24T13:56:13;100858.59;;;20.56;43.26
74542;BME280;63015;45.378;20.360;2022-09-24T13:58:40;100850.56;;;20.59;43.12
74542;BME280;63015;45.378;20.360;2022-09-24T14:01:17;100838.38;;;20.53;43.47
74542;BME280;63015;45.378;20.360;2022-09-24T14:03:56;100831.22;;;20.57;43.40
74542;BME280;63015;45.378;20.360;2022-09-24T14:06:31;100836.56;;;20.55;43.47
74542;BME280;63015;45.378;20.360;2022-09-24T14:08:58;100848.81;;;20.58;43.36
74542;BME280;63015;45.378;20.360;2022-09-24T14:11:25;100848.94;;;20.54;43.31
74542;BME280;63015;45.378;20.360;2022-09-24T14:13:50;100849.88;;;20.53;43.38
74542;BME280;63015;45.378;20.360;2022-09-24T14:16:16;100846.25;;;20.56;43.43
74542;BME280;63015;45.378;20.360;2022-09-24T14:18:42;100843.69;;;20.53;43.50
74542;BME280;63015;45.378;20.360;2022-09-24T14:26:07;100825.13;;;20.54;43.57
74542;BME280;63015;45.378;20.360;2022-09-24T14:28:37;100826.94;;;20.52;43.96
74542;BME280;63015;45.378;20.360;2022-09-24T14:31:04;100818.03;;;20.55;43.71
74542;BME280;63015;45.378;20.360;2022-09-24T14:33:31;100823.44;;;20.52;43.78
74542;BME280;63015;45.378;20.360;2022-09-24T14:35:58;100826.88;;;20.54;43.68
74542;BME280;63015;45.378;20.360;2022-09-24T14:40:51;100834.03;;;20.52;43.82
74542;BME280;63015;45.378;20.360;2022-09-24T14:45:47;100836.63;;;20.53;43.85
74542;BME280;63015;45.378;20.360;2022-09-24T14:48:32;100840.19;;;20.52;44.01
74542;BME280;63015;45.378;20.360;2022-09-24T14:50:58;100832.25;;;20.52;44.03
74542;BME280;63015;45.378;20.360;2022-09-24T14:55:49;100837.59;;;20.51;44.03
74542;BME280;63015;45.378;20.360;2022-09-24T15:01:01;100816.41;;;20.51;43.93
74542;BME280;63015;45.378;20.360;2022-09-24T15:06:15;100813.78;;;20.51;44.09
74542;BME280;63015;45.378;20.360;2022-09-24T15:08:42;100815.44;;;20.53;44.40